sensor_id;sensor_type;location;lat;lon;timestamp;P1;durP1;ratioP1;P2;durP2;ratioP2
17796;SDS011;55596;53.554;9.916;2023-04-29T00:02:20;20.30;;;15.87;;
17796;SDS011;55596;53.554;9.916;2023-04-29T00:04:47;24.40;;;16.57;;
17796;SDS011;55596;53.554;9.916;2023-04-29T00:07:15;19.33;;;14.77;;
17796;SDS011;55596;53.554;9.916;2023-04-29T00:09:42;20.73;;;16.50;;
17796;SDS011;55596;53.554;9.916;2023-04-29T00:12:09;22.37;;;16.50;;
17796;SDS011;55596;53.554;9.916;2023-04-29T00:14:36;22.77;;;17.53;;
17796;SDS011;55596;53.554;9.916;2023-04-29T00:17:05;21.53;;;17.33;;
17796;SDS011;55596;53.554;9.916;2023-04-29T00:19:32;26.83;;;17.37;;
17796;SDS011;55596;53.554;9.916;2023-04-29T00:21:59;27.83;;;18.53;;
17796;SDS011;55596;53.554;9.916;2023-04-29T00:24:27;24.10;;;17.87;;
17796;SDS011;55596;53.554;9.916;2023-04-29T00:26:54;24.03;;;18.27;;
17796;SDS011;55596;53.554;9.916;2023-04-29T00:29:21;25.67;;;18.00;;
17796;SDS011;55596;53.554;9.916;2023-04-29T00:31:48;24.40;;;18.03;;
17796;SDS011;55596;53.554;9.916;2023-04-29T00:34:17;24.43;;;18.13;;
17796;SDS011;55596;53.554;9.916;2023-04-29T00:36:44;22.10;;;18.23;;
17796;SDS011;55596;53.554;9.916;2023-04-29T00:39:11;25.53;;;18.53;;
17796;SDS011;55596;53.554;9.916;2023-04-29T00:41:39;22.17;;;17.93;;
17796;SDS011;55596;53.554;9.916;2023-04-29T00:44:06;22.17;;;17.90;;
17796;SDS011;55596;53.554;9.916;2023-04-29T00:46:34;21.57;;;17.17;;
17796;SDS011;55596;53.554;9.916;2023-04-29T00:49:01;23.90;;;18.47;;
17796;SDS011;55596;53.554;9.916;2023-04-29T00:51:30;23.40;;;17.10;;
17796;SDS011;55596;53.554;9.916;2023-04-29T00:53:57;21.53;;;17.47;;
17796;SDS011;55596;53.554;9.916;2023-04-29T00:56:24;20.67;;;17.83;;
17796;SDS011;55596;53.554;9.916;2023-04-29T00:58:54;22.00;;;17.20;;
17796;SDS011;55596;53.554;9.916;2023-04-29T01:01:23;23.20;;;17.57;;
17796;SDS011;55596;53.554;9.916;2023-04-29T01:03:50;20.73;;;16.83;;
17796;SDS011;55596;53.554;9.916;2023-04-29T01:06:21;26.23;;;17.73;;
17796;SDS011;55596;53.554;9.916;2023-04-29T01:08:54;24.23;;;17.63;;
17796;SDS011;55596;53.554;9.916;2023-04-29T01:11:29;22.80;;;17.17;;
17796;SDS011;55596;53.554;9.916;2023-04-29T01:14:02;24.27;;;18.00;;
17796;SDS011;55596;53.554;9.916;2023-04-29T01:16:33;27.33;;;18.73;;
17796;SDS011;55596;53.554;9.916;2023-04-29T01:19:05;22.20;;;17.77;;
17796;SDS011;55596;53.554;9.916;2023-04-29T01:21:44;27.23;;;18.73;;
17796;SDS011;55596;53.554;9.916;2023-04-29T01:24:14;25.33;;;18.67;;
17796;SDS011;55596;53.554;9.916;2023-04-29T01:26:41;25.63;;;19.23;;
17796;SDS011;55596;53.554;9.916;2023-04-29T01:29:15;25.83;;;19.60;;
17796;SDS011;55596;53.554;9.916;2023-04-29T01:31:50;27.70;;;18.63;;
17796;SDS011;55596;53.554;9.916;2023-04-29T01:34:21;28.33;;;19.30;;
17796;SDS011;55596;53.554;9.916;2023-04-29T01:36:50;26.87;;;19.67;;
17796;SDS011;55596;53.554;9.916;2023-04-29T01:39:23;27.47;;;20.10;;
17796;SDS011;55596;53.554;9.916;2023-04-29T01:41:55;29.33;;;20.37;;
17796;SDS011;55596;53.554;9.916;2023-04-29T01:44:24;27.20;;;19.97;;
17796;SDS011;55596;53.554;9.916;2023-04-29T01:46:53;27.77;;;20.13;;
17796;SDS011;55596;53.554;9.916;2023-04-29T01:49:20;31.33;;;20.53;;
17796;SDS011;55596;53.554;9.916;2023-04-29T01:51:47;27.40;;;20.90;;
17796;SDS011;55596;53.554;9.916;2023-04-29T01:54:15;29.47;;;20.67;;
17796;SDS011;55596;53.554;9.916;2023-04-29T01:56:43;36.80;;;21.57;;
17796;SDS011;55596;53.554;9.916;2023-04-29T01:59:10;33.50;;;21.47;;
17796;SDS011;55596;53.554;9.916;2023-04-29T02:01:38;32.93;;;20.67;;
17796;SDS011;55596;53.554;9.916;2023-04-29T02:04:05;27.73;;;20.77;;
17796;SDS011;55596;53.554;9.916;2023-04-29T02:06:32;29.33;;;21.33;;
17796;SDS011;55596;53.554;9.916;2023-04-29T02:08:59;30.20;;;21.20;;
17796;SDS011;55596;53.554;9.916;2023-04-29T02:11:26;31.73;;;21.13;;
17796;SDS011;55596;53.554;9.916;2023-04-29T02:13:55;28.67;;;21.27;;
17796;SDS011;55596;53.554;9.916;2023-04-29T02:16:22;31.00;;;20.40;;
17796;SDS011;55596;53.554;9.916;2023-04-29T02:18:49;29.23;;;21.50;;
17796;SDS011;55596;53.554;9.916;2023-04-29T02:21:17;31.70;;;22.07;;
17796;SDS011;55596;53.554;9.916;2023-04-29T02:23:44;29.90;;;22.20;;
17796;SDS011;55596;53.554;9.916;2023-04-29T02:26:11;29.73;;;22.10;;
17796;SDS011;55596;53.554;9.916;2023-04-29T02:28:39;29.07;;;20.67;;
17796;SDS011;55596;53.554;9.916;2023-04-29T02:31:08;28.00;;;22.03;;
17796;SDS011;55596;53.554;9.916;2023-04-29T02:33:35;32.10;;;23.20;;
17796;SDS011;55596;53.554;9.916;2023-04-29T02:36:02;31.00;;;23.27;;
17796;SDS011;55596;53.554;9.916;2023-04-29T02:38:29;32.73;;;22.83;;
17796;SDS011;55596;53.554;9.916;2023-04-29T02:40:57;33.43;;;23.57;;
17796;SDS011;55596;53.554;9.916;2023-04-29T02:43:24;33.50;;;23.40;;
17796;SDS011;55596;53.554;9.916;2023-04-29T02:45:54;34.50;;;23.07;;
17796;SDS011;55596;53.554;9.916;2023-04-29T02:48:23;30.13;;;22.43;;
17796;SDS011;55596;53.554;9.916;2023-04-29T02:50:50;29.33;;;23.27;;
17796;SDS011;55596;53.554;9.916;2023-04-29T02:53:17;34.17;;;22.87;;
17796;SDS011;55596;53.554;9.916;2023-04-29T02:55:45;30.93;;;22.23;;
17796;SDS011;55596;53.554;9.916;2023-04-29T02:58:13;31.93;;;23.17;;
17796;SDS011;55596;53.554;9.916;2023-04-29T03:00:40;29.63;;;21.90;;
17796;SDS011;55596;53.554;9.916;2023-04-29T03:03:07;30.00;;;21.43;;
17796;SDS011;55596;53.554;9.916;2023-04-29T03:05:36;26.10;;;20.83;;
17796;SDS011;55596;53.554;9.916;2023-04-29T03:08:03;30.73;;;20.83;;
17796;SDS011;55596;53.554;9.916;2023-04-29T03:10:31;27.97;;;19.93;;
17796;SDS011;55596;53.554;9.916;2023-04-29T03:12:58;26.77;;;20.90;;
17796;SDS011;55596;53.554;9.916;2023-04-29T03:15:25;30.20;;;20.57;;
17796;SDS011;55596;53.554;9.916;2023-04-29T03:17:53;28.83;;;21.37;;
17796;SDS011;55596;53.554;9.916;2023-04-29T03:20:20;26.10;;;20.30;;
17796;SDS011;55596;53.554;9.916;2023-04-29T03:22:50;26.20;;;20.63;;
17796;SDS011;55596;53.554;9.916;2023-04-29T03:25:17;28.70;;;20.30;;
17796;SDS011;55596;53.554;9.916;2023-04-29T03:27:44;25.87;;;20.23;;
17796;SDS011;55596;53.554;9.916;2023-04-29T03:30:11;27.87;;;20.20;;
17796;SDS011;55596;53.554;9.916;2023-04-29T03:32:38;27.87;;;20.40;;
17796;SDS011;55596;53.554;9.916;2023-04-29T03:35:05;27.97;;;20.80;;
17796;SDS011;55596;53.554;9.916;2023-04-29T03:37:33;25.33;;;20.57;;
17796;SDS011;55596;53.554;9.916;2023-04-29T03:40:01;25.10;;;20.20;;
17796;SDS011;55596;53.554;9.916;2023-04-29T03:42:29;27.90;;;19.53;;
17796;SDS011;55596;53.554;9.916;2023-04-29T03:44:56;26.23;;;19.50;;
17796;SDS011;55596;53.554;9.916;2023-04-29T03:47:23;25.30;;;19.13;;
17796;SDS011;55596;53.554;9.916;2023-04-29T03:49:50;24.97;;;19.43;;
17796;SDS011;55596;53.554;9.916;2023-04-29T03:52:17;27.33;;;20.23;;
17796;SDS011;55596;53.554;9.916;2023-04-29T03:54:44;27.13;;;19.97;;
17796;SDS011;55596;53.554;9.916;2023-04-29T03:57:13;23.57;;;18.57;;
17796;SDS011;55596;53.554;9.916;2023-04-29T03:59:40;27.03;;;20.40;;
17796;SDS011;55596;53.554;9.916;2023-04-29T04:02:07;24.47;;;19.33;;
17796;SDS011;55596;53.554;9.916;2023-04-29T04:04:34;23.97;;;19.17;;
17796;SDS011;55596;53.554;9.916;2023-04-29T04:07:02;29.93;;;17.47;;
17796;SDS011;55596;53.554;9.916;2023-04-29T04:09:29;27.77;;;19.13;;
17796;SDS011;55596;53.554;9.916;2023-04-29T04:11:57;26.00;;;19.13;;
17796;SDS011;55596;53.554;9.916;2023-04-29T04:14:26;22.00;;;17.03;;
17796;SDS011;55596;53.554;9.916;2023-04-29T04:16:53;20.57;;;16.73;;
17796;SDS011;55596;53.554;9.916;2023-04-29T04:19:20;23.87;;;17.77;;
17796;SDS011;55596;53.554;9.916;2023-04-29T04:21:47;25.67;;;18.17;;
17796;SDS011;55596;53.554;9.916;2023-04-29T04:24:16;22.30;;;17.10;;
17796;SDS011;55596;53.554;9.916;2023-04-29T04:26:43;22.37;;;17.47;;
17796;SDS011;55596;53.554;9.916;2023-04-29T04:29:10;26.20;;;17.67;;
17796;SDS011;55596;53.554;9.916;2023-04-29T04:31:38;26.83;;;19.17;;
17796;SDS011;55596;53.554;9.916;2023-04-29T04:34:06;23.60;;;18.60;;
17796;SDS011;55596;53.554;9.916;2023-04-29T04:36:33;26.07;;;18.20;;
17796;SDS011;55596;53.554;9.916;2023-04-29T04:39:00;23.90;;;18.13;;
17796;SDS011;55596;53.554;9.916;2023-04-29T04:41:27;23.10;;;17.27;;
17796;SDS011;55596;53.554;9.916;2023-04-29T04:43:55;21.90;;;18.37;;
17796;SDS011;55596;53.554;9.916;2023-04-29T04:46:22;23.13;;;17.13;;
17796;SDS011;55596;53.554;9.916;2023-04-29T04:48:51;21.53;;;16.90;;
17796;SDS011;55596;53.554;9.916;2023-04-29T04:51:18;23.77;;;16.50;;
17796;SDS011;55596;53.554;9.916;2023-04-29T04:53:45;18.03;;;15.27;;
17796;SDS011;55596;53.554;9.916;2023-04-29T04:56:13;19.40;;;15.97;;
17796;SDS011;55596;53.554;9.916;2023-04-29T04:58:40;19.13;;;15.93;;
17796;SDS011;55596;53.554;9.916;2023-04-29T05:01:07;20.93;;;16.40;;
17796;SDS011;55596;53.554;9.916;2023-04-29T05:03:34;20.50;;;16.47;;
17796;SDS011;55596;53.554;9.916;2023-04-29T05:06:02;21.87;;;15.93;;
17796;SDS011;55596;53.554;9.916;2023-04-29T05:08:30;19.83;;;14.97;;
17796;SDS011;55596;53.554;9.916;2023-04-29T05:10:57;21.30;;;15.23;;
17796;SDS011;55596;53.554;9.916;2023-04-29T05:13:24;21.43;;;14.73;;
17796;SDS011;55596;53.554;9.916;2023-04-29T05:15:51;18.63;;;14.33;;
17796;SDS011;55596;53.554;9.916;2023-04-29T05:18:18;18.43;;;14.40;;
17796;SDS011;55596;53.554;9.916;2023-04-29T05:20:45;17.13;;;13.63;;
17796;SDS011;55596;53.554;9.916;2023-04-29T05:23:14;14.60;;;12.17;;
17796;SDS011;55596;53.554;9.916;2023-04-29T05:25:41;17.40;;;12.73;;
17796;SDS011;55596;53.554;9.916;2023-04-29T05:28:08;14.37;;;11.90;;
17796;SDS011;55596;53.554;9.916;2023-04-29T05:30:35;15.67;;;12.00;;
17796;SDS011;55596;53.554;9.916;2023-04-29T05:33:02;14.57;;;12.17;;
17796;SDS011;55596;53.554;9.916;2023-04-29T05:35:29;14.47;;;11.10;;
17796;SDS011;55596;53.554;9.916;2023-04-29T05:37:57;14.17;;;10.53;;
17796;SDS011;55596;53.554;9.916;2023-04-29T05:40:25;12.50;;;10.43;;
17796;SDS011;55596;53.554;9.916;2023-04-29T05:42:52;12.93;;;10.07;;
17796;SDS011;55596;53.554;9.916;2023-04-29T05:45:19;13.60;;;10.80;;
17796;SDS011;55596;53.554;9.916;2023-04-29T05:47:47;15.23;;;10.70;;
17796;SDS011;55596;53.554;9.916;2023-04-29T05:50:14;13.37;;;11.03;;
17796;SDS011;55596;53.554;9.916;2023-04-29T05:52:41;12.90;;;10.63;;
17796;SDS011;55596;53.554;9.916;2023-04-29T05:55:09;12.70;;;10.57;;
17796;SDS011;55596;53.554;9.916;2023-04-29T05:57:37;14.70;;;10.27;;
17796;SDS011;55596;53.554;9.916;2023-04-29T06:00:05;14.60;;;10.57;;
17796;SDS011;55596;53.554;9.916;2023-04-29T06:02:32;12.20;;;10.07;;
17796;SDS011;55596;53.554;9.916;2023-04-29T06:04:59;14.77;;;9.90;;
17796;SDS011;55596;53.554;9.916;2023-04-29T06:07:26;11.23;;;9.37;;
17796;SDS011;55596;53.554;9.916;2023-04-29T06:09:54;13.23;;;9.37;;
17796;SDS011;55596;53.554;9.916;2023-04-29T06:12:22;12.87;;;9.17;;
17796;SDS011;55596;53.554;9.916;2023-04-29T06:14:50;10.67;;;8.83;;
17796;SDS011;55596;53.554;9.916;2023-04-29T06:17:17;12.20;;;8.93;;
17796;SDS011;55596;53.554;9.916;2023-04-29T06:19:44;13.30;;;8.73;;
17796;SDS011;55596;53.554;9.916;2023-04-29T06:22:11;12.57;;;8.80;;
17796;SDS011;55596;53.554;9.916;2023-04-29T06:24:38;14.10;;;9.17;;
17796;SDS011;55596;53.554;9.916;2023-04-29T06:27:06;9.27;;;8.37;;
17796;SDS011;55596;53.554;9.916;2023-04-29T06:29:33;11.33;;;8.00;;
17796;SDS011;55596;53.554;9.916;2023-04-29T06:32:01;11.47;;;8.03;;
17796;SDS011;55596;53.554;9.916;2023-04-29T06:34:29;14.37;;;9.30;;
17796;SDS011;55596;53.554;9.916;2023-04-29T06:36:56;13.93;;;8.87;;
17796;SDS011;55596;53.554;9.916;2023-04-29T06:39:23;16.77;;;7.97;;
17796;SDS011;55596;53.554;9.916;2023-04-29T06:41:50;11.30;;;7.80;;
17796;SDS011;55596;53.554;9.916;2023-04-29T06:44:17;10.23;;;7.83;;
17796;SDS011;55596;53.554;9.916;2023-04-29T06:46:44;10.13;;;7.53;;
17796;SDS011;55596;53.554;9.916;2023-04-29T06:49:13;13.87;;;7.80;;
17796;SDS011;55596;53.554;9.916;2023-04-29T06:51:40;12.27;;;7.93;;
17796;SDS011;55596;53.554;9.916;2023-04-29T06:54:07;11.27;;;8.23;;
17796;SDS011;55596;53.554;9.916;2023-04-29T06:56:35;10.80;;;7.97;;
17796;SDS011;55596;53.554;9.916;2023-04-29T06:59:02;16.37;;;8.03;;
17796;SDS011;55596;53.554;9.916;2023-04-29T07:01:29;10.13;;;7.53;;
17796;SDS011;55596;53.554;9.916;2023-04-29T07:03:56;12.97;;;8.17;;
17796;SDS011;55596;53.554;9.916;2023-04-29T07:06:25;10.37;;;7.67;;
17796;SDS011;55596;53.554;9.916;2023-04-29T07:08:52;10.60;;;8.30;;
17796;SDS011;55596;53.554;9.916;2023-04-29T07:11:19;10.20;;;7.97;;
17796;SDS011;55596;53.554;9.916;2023-04-29T07:13:48;15.57;;;8.13;;
17796;SDS011;55596;53.554;9.916;2023-04-29T07:16:16;12.30;;;8.10;;
17796;SDS011;55596;53.554;9.916;2023-04-29T07:18:45;10.20;;;7.67;;
17796;SDS011;55596;53.554;9.916;2023-04-29T07:21:12;11.10;;;7.40;;
17796;SDS011;55596;53.554;9.916;2023-04-29T07:23:41;13.57;;;8.07;;
17796;SDS011;55596;53.554;9.916;2023-04-29T07:26:09;11.30;;;7.77;;
17796;SDS011;55596;53.554;9.916;2023-04-29T07:28:37;14.20;;;7.90;;
17796;SDS011;55596;53.554;9.916;2023-04-29T07:31:04;12.83;;;6.80;;
17796;SDS011;55596;53.554;9.916;2023-04-29T07:33:32;15.07;;;7.40;;
17796;SDS011;55596;53.554;9.916;2023-04-29T07:35:59;11.60;;;6.50;;
17796;SDS011;55596;53.554;9.916;2023-04-29T07:38:26;11.00;;;6.87;;
17796;SDS011;55596;53.554;9.916;2023-04-29T07:40:56;11.60;;;6.60;;
17796;SDS011;55596;53.554;9.916;2023-04-29T07:43:23;12.40;;;5.97;;
17796;SDS011;55596;53.554;9.916;2023-04-29T07:45:50;11.23;;;6.13;;
17796;SDS011;55596;53.554;9.916;2023-04-29T07:48:17;9.30;;;6.13;;
17796;SDS011;55596;53.554;9.916;2023-04-29T07:50:46;7.87;;;5.70;;
17796;SDS011;55596;53.554;9.916;2023-04-29T07:53:13;10.33;;;5.80;;
17796;SDS011;55596;53.554;9.916;2023-04-29T07:55:42;12.20;;;6.00;;
17796;SDS011;55596;53.554;9.916;2023-04-29T07:58:11;8.40;;;5.30;;
17796;SDS011;55596;53.554;9.916;2023-04-29T08:00:38;9.53;;;5.50;;
17796;SDS011;55596;53.554;9.916;2023-04-29T08:03:05;10.17;;;5.47;;
17796;SDS011;55596;53.554;9.916;2023-04-29T08:05:32;8.60;;;4.77;;
17796;SDS011;55596;53.554;9.916;2023-04-29T08:08:00;10.60;;;5.30;;
17796;SDS011;55596;53.554;9.916;2023-04-29T08:10:27;7.00;;;5.40;;
17796;SDS011;55596;53.554;9.916;2023-04-29T08:12:54;8.53;;;4.87;;
17796;SDS011;55596;53.554;9.916;2023-04-29T08:15:23;7.00;;;5.47;;
17796;SDS011;55596;53.554;9.916;2023-04-29T08:17:51;8.23;;;5.23;;
17796;SDS011;55596;53.554;9.916;2023-04-29T08:20:18;8.67;;;5.23;;
17796;SDS011;55596;53.554;9.916;2023-04-29T08:22:46;7.77;;;5.13;;
17796;SDS011;55596;53.554;9.916;2023-04-29T08:25:13;8.90;;;5.37;;
17796;SDS011;55596;53.554;9.916;2023-04-29T08:27:40;9.23;;;5.27;;
17796;SDS011;55596;53.554;9.916;2023-04-29T08:30:10;10.40;;;5.60;;
17796;SDS011;55596;53.554;9.916;2023-04-29T08:32:38;8.97;;;5.33;;
17796;SDS011;55596;53.554;9.916;2023-04-29T08:35:06;9.27;;;5.30;;
17796;SDS011;55596;53.554;9.916;2023-04-29T08:37:33;11.00;;;5.63;;
17796;SDS011;55596;53.554;9.916;2023-04-29T08:40:01;8.57;;;5.27;;
17796;SDS011;55596;53.554;9.916;2023-04-29T08:42:31;6.97;;;5.33;;
17796;SDS011;55596;53.554;9.916;2023-04-29T08:45:00;9.93;;;5.57;;
17796;SDS011;55596;53.554;9.916;2023-04-29T08:47:28;8.03;;;5.80;;
17796;SDS011;55596;53.554;9.916;2023-04-29T08:49:57;7.80;;;5.87;;
17796;SDS011;55596;53.554;9.916;2023-04-29T08:52:28;7.77;;;5.80;;
17796;SDS011;55596;53.554;9.916;2023-04-29T08:54:56;7.67;;;5.53;;
17796;SDS011;55596;53.554;9.916;2023-04-29T08:57:23;11.30;;;5.90;;
17796;SDS011;55596;53.554;9.916;2023-04-29T08:59:51;9.70;;;5.33;;
17796;SDS011;55596;53.554;9.916;2023-04-29T09:02:19;9.33;;;6.47;;
17796;SDS011;55596;53.554;9.916;2023-04-29T09:04:46;6.80;;;5.63;;
17796;SDS011;55596;53.554;9.916;2023-04-29T09:07:16;9.17;;;5.90;;
17796;SDS011;55596;53.554;9.916;2023-04-29T09:09:44;11.13;;;5.30;;
17796;SDS011;55596;53.554;9.916;2023-04-29T09:12:11;8.43;;;5.83;;
17796;SDS011;55596;53.554;9.916;2023-04-29T09:14:38;11.77;;;6.53;;
17796;SDS011;55596;53.554;9.916;2023-04-29T09:17:05;10.03;;;6.30;;
17796;SDS011;55596;53.554;9.916;2023-04-29T09:19:33;7.10;;;5.50;;
17796;SDS011;55596;53.554;9.916;2023-04-29T09:22:01;9.60;;;5.77;;
17796;SDS011;55596;53.554;9.916;2023-04-29T09:24:30;8.87;;;6.03;;
17796;SDS011;55596;53.554;9.916;2023-04-29T09:26:57;9.17;;;4.97;;
17796;SDS011;55596;53.554;9.916;2023-04-29T09:29:25;8.13;;;5.40;;
17796;SDS011;55596;53.554;9.916;2023-04-29T09:31:53;7.90;;;5.13;;
17796;SDS011;55596;53.554;9.916;2023-04-29T09:34:29;7.40;;;5.33;;
17796;SDS011;55596;53.554;9.916;2023-04-29T09:36:56;7.83;;;5.60;;
17796;SDS011;55596;53.554;9.916;2023-04-29T09:39:24;7.13;;;5.17;;
17796;SDS011;55596;53.554;9.916;2023-04-29T09:41:59;7.30;;;5.00;;
17796;SDS011;55596;53.554;9.916;2023-04-29T09:44:28;6.23;;;4.87;;
17796;SDS011;55596;53.554;9.916;2023-04-29T09:46:55;11.10;;;5.63;;
17796;SDS011;55596;53.554;9.916;2023-04-29T09:49:23;7.63;;;5.60;;
17796;SDS011;55596;53.554;9.916;2023-04-29T09:51:51;12.10;;;5.23;;
17796;SDS011;55596;53.554;9.916;2023-04-29T09:54:19;8.50;;;5.27;;
17796;SDS011;55596;53.554;9.916;2023-04-29T09:56:47;8.83;;;4.90;;
17796;SDS011;55596;53.554;9.916;2023-04-29T09:59:17;8.00;;;4.87;;
17796;SDS011;55596;53.554;9.916;2023-04-29T10:01:45;6.73;;;4.80;;
17796;SDS011;55596;53.554;9.916;2023-04-29T10:04:14;8.00;;;4.60;;
17796;SDS011;55596;53.554;9.916;2023-04-29T10:06:42;6.73;;;4.67;;
17796;SDS011;55596;53.554;9.916;2023-04-29T10:09:12;9.50;;;4.57;;
17796;SDS011;55596;53.554;9.916;2023-04-29T10:11:43;10.33;;;4.70;;
17796;SDS011;55596;53.554;9.916;2023-04-29T10:14:12;11.43;;;4.90;;
17796;SDS011;55596;53.554;9.916;2023-04-29T10:16:44;7.23;;;5.27;;
17796;SDS011;55596;53.554;9.916;2023-04-29T10:19:13;8.70;;;5.17;;
17796;SDS011;55596;53.554;9.916;2023-04-29T10:21:41;7.87;;;5.07;;
17796;SDS011;55596;53.554;9.916;2023-04-29T10:24:08;7.87;;;5.80;;
17796;SDS011;55596;53.554;9.916;2023-04-29T10:26:37;7.47;;;5.20;;
17796;SDS011;55596;53.554;9.916;2023-04-29T10:29:04;7.73;;;5.10;;
17796;SDS011;55596;53.554;9.916;2023-04-29T10:31:34;5.23;;;4.73;;
17796;SDS011;55596;53.554;9.916;2023-04-29T10:34:03;7.70;;;4.60;;
17796;SDS011;55596;53.554;9.916;2023-04-29T10:36:31;7.67;;;4.80;;
17796;SDS011;55596;53.554;9.916;2023-04-29T10:38:59;6.37;;;4.93;;
17796;SDS011;55596;53.554;9.916;2023-04-29T10:41:30;7.93;;;5.50;;
17796;SDS011;55596;53.554;9.916;2023-04-29T10:43:59;7.20;;;5.47;;
17796;SDS011;55596;53.554;9.916;2023-04-29T10:46:28;10.20;;;5.70;;
17796;SDS011;55596;53.554;9.916;2023-04-29T10:48:55;8.00;;;4.73;;
17796;SDS011;55596;53.554;9.916;2023-04-29T10:51:28;7.60;;;4.70;;
17796;SDS011;55596;53.554;9.916;2023-04-29T10:53:57;6.57;;;4.67;;
17796;SDS011;55596;53.554;9.916;2023-04-29T10:56:34;6.57;;;5.13;;
17796;SDS011;55596;53.554;9.916;2023-04-29T10:59:02;9.13;;;5.40;;
17796;SDS011;55596;53.554;9.916;2023-04-29T11:01:39;8.73;;;5.30;;
17796;SDS011;55596;53.554;9.916;2023-04-29T11:04:06;7.57;;;5.30;;
17796;SDS011;55596;53.554;9.916;2023-04-29T11:06:40;6.20;;;5.30;;
17796;SDS011;55596;53.554;9.916;2023-04-29T11:09:11;10.20;;;5.63;;
17796;SDS011;55596;53.554;9.916;2023-04-29T11:11:42;8.27;;;5.60;;
17796;SDS011;55596;53.554;9.916;2023-04-29T11:14:09;9.57;;;5.30;;
17796;SDS011;55596;53.554;9.916;2023-04-29T11:16:37;10.90;;;6.10;;
17796;SDS011;55596;53.554;9.916;2023-04-29T11:19:04;8.73;;;5.57;;
17796;SDS011;55596;53.554;9.916;2023-04-29T11:21:33;9.07;;;6.30;;
17796;SDS011;55596;53.554;9.916;2023-04-29T11:24:02;7.53;;;5.67;;
17796;SDS011;55596;53.554;9.916;2023-04-29T11:26:30;5.90;;;5.27;;
17796;SDS011;55596;53.554;9.916;2023-04-29T11:28:58;6.40;;;5.50;;
17796;SDS011;55596;53.554;9.916;2023-04-29T11:31:26;13.70;;;6.17;;
17796;SDS011;55596;53.554;9.916;2023-04-29T11:33:54;9.20;;;4.97;;
17796;SDS011;55596;53.554;9.916;2023-04-29T11:36:21;6.97;;;4.47;;
17796;SDS011;55596;53.554;9.916;2023-04-29T11:38:48;8.63;;;4.90;;
17796;SDS011;55596;53.554;9.916;2023-04-29T11:41:17;5.70;;;4.40;;
17796;SDS011;55596;53.554;9.916;2023-04-29T11:43:44;7.27;;;5.13;;
17796;SDS011;55596;53.554;9.916;2023-04-29T11:46:12;9.30;;;5.13;;
17796;SDS011;55596;53.554;9.916;2023-04-29T11:48:44;6.57;;;4.50;;
17796;SDS011;55596;53.554;9.916;2023-04-29T11:51:12;10.40;;;5.03;;
17796;SDS011;55596;53.554;9.916;2023-04-29T11:53:39;6.38;;;4.28;;
17796;SDS011;55596;53.554;9.916;2023-04-29T11:56:07;10.57;;;4.85;;
17796;SDS011;55596;53.554;9.916;2023-04-29T11:58:36;6.68;;;4.50;;
17796;SDS011;55596;53.554;9.916;2023-04-29T12:01:03;7.18;;;5.38;;
17796;SDS011;55596;53.554;9.916;2023-04-29T12:03:31;10.17;;;5.60;;
17796;SDS011;55596;53.554;9.916;2023-04-29T12:06:00;7.10;;;5.15;;
17796;SDS011;55596;53.554;9.916;2023-04-29T12:08:28;7.65;;;5.45;;
17796;SDS011;55596;53.554;9.916;2023-04-29T12:10:58;8.23;;;5.43;;
17796;SDS011;55596;53.554;9.916;2023-04-29T12:13:27;6.18;;;5.00;;
17796;SDS011;55596;53.554;9.916;2023-04-29T12:15:56;9.30;;;5.30;;
17796;SDS011;55596;53.554;9.916;2023-04-29T12:18:24;9.23;;;5.00;;
17796;SDS011;55596;53.554;9.916;2023-04-29T12:20:52;6.10;;;4.50;;
17796;SDS011;55596;53.554;9.916;2023-04-29T12:23:21;10.15;;;5.00;;
17796;SDS011;55596;53.554;9.916;2023-04-29T12:25:49;7.35;;;4.75;;
17796;SDS011;55596;53.554;9.916;2023-04-29T12:28:19;8.85;;;4.60;;
17796;SDS011;55596;53.554;9.916;2023-04-29T12:30:46;5.45;;;3.67;;
17796;SDS011;55596;53.554;9.916;2023-04-29T12:33:21;5.55;;;3.67;;
17796;SDS011;55596;53.554;9.916;2023-04-29T12:35:49;6.93;;;3.92;;
17796;SDS011;55596;53.554;9.916;2023-04-29T12:38:19;9.10;;;4.05;;
17796;SDS011;55596;53.554;9.916;2023-04-29T12:40:46;8.07;;;3.80;;
17796;SDS011;55596;53.554;9.916;2023-04-29T12:43:15;5.25;;;3.65;;
17796;SDS011;55596;53.554;9.916;2023-04-29T12:45:43;7.03;;;3.70;;
17796;SDS011;55596;53.554;9.916;2023-04-29T12:48:11;8.70;;;3.78;;
17796;SDS011;55596;53.554;9.916;2023-04-29T12:50:40;8.27;;;4.00;;
17796;SDS011;55596;53.554;9.916;2023-04-29T12:53:08;7.93;;;4.40;;
17796;SDS011;55596;53.554;9.916;2023-04-29T12:55:36;7.78;;;3.60;;
17796;SDS011;55596;53.554;9.916;2023-04-29T12:58:04;7.53;;;3.97;;
17796;SDS011;55596;53.554;9.916;2023-04-29T13:00:33;10.50;;;4.18;;
17796;SDS011;55596;53.554;9.916;2023-04-29T13:03:01;5.95;;;3.67;;
17796;SDS011;55596;53.554;9.916;2023-04-29T13:05:29;8.13;;;4.28;;
17796;SDS011;55596;53.554;9.916;2023-04-29T13:07:58;7.38;;;3.67;;
17796;SDS011;55596;53.554;9.916;2023-04-29T13:10:25;7.75;;;3.83;;
17796;SDS011;55596;53.554;9.916;2023-04-29T13:12:53;4.80;;;3.45;;
17796;SDS011;55596;53.554;9.916;2023-04-29T13:15:21;6.13;;;3.15;;
17796;SDS011;55596;53.554;9.916;2023-04-29T13:17:48;7.28;;;3.05;;
17796;SDS011;55596;53.554;9.916;2023-04-29T13:20:16;5.45;;;2.47;;
17796;SDS011;55596;53.554;9.916;2023-04-29T13:22:43;4.20;;;2.40;;
17796;SDS011;55596;53.554;9.916;2023-04-29T13:25:12;7.20;;;2.38;;
17796;SDS011;55596;53.554;9.916;2023-04-29T13:27:40;4.72;;;2.42;;
17796;SDS011;55596;53.554;9.916;2023-04-29T13:30:08;4.80;;;2.53;;
17796;SDS011;55596;53.554;9.916;2023-04-29T13:32:35;4.13;;;2.15;;
17796;SDS011;55596;53.554;9.916;2023-04-29T13:35:04;5.22;;;2.00;;
17796;SDS011;55596;53.554;9.916;2023-04-29T13:37:32;6.35;;;2.20;;
17796;SDS011;55596;53.554;9.916;2023-04-29T13:39:59;5.60;;;1.73;;
17796;SDS011;55596;53.554;9.916;2023-04-29T13:42:28;3.05;;;1.60;;
17796;SDS011;55596;53.554;9.916;2023-04-29T13:44:55;3.55;;;1.80;;
17796;SDS011;55596;53.554;9.916;2023-04-29T13:47:23;3.55;;;1.75;;
17796;SDS011;55596;53.554;9.916;2023-04-29T13:49:50;3.08;;;2.00;;
17796;SDS011;55596;53.554;9.916;2023-04-29T13:52:17;2.92;;;1.70;;
17796;SDS011;55596;53.554;9.916;2023-04-29T13:54:45;3.90;;;1.77;;
17796;SDS011;55596;53.554;9.916;2023-04-29T13:57:12;4.07;;;2.08;;
17796;SDS011;55596;53.554;9.916;2023-04-29T13:59:40;4.25;;;2.05;;
17796;SDS011;55596;53.554;9.916;2023-04-29T14:02:07;3.28;;;2.00;;
17796;SDS011;55596;53.554;9.916;2023-04-29T14:04:37;6.60;;;2.67;;
17796;SDS011;55596;53.554;9.916;2023-04-29T14:07:05;5.90;;;2.42;;
17796;SDS011;55596;53.554;9.916;2023-04-29T14:09:32;4.35;;;2.10;;
17796;SDS011;55596;53.554;9.916;2023-04-29T14:11:59;5.05;;;2.20;;
17796;SDS011;55596;53.554;9.916;2023-04-29T14:14:26;5.88;;;2.35;;
17796;SDS011;55596;53.554;9.916;2023-04-29T14:16:55;3.67;;;1.85;;
17796;SDS011;55596;53.554;9.916;2023-04-29T14:19:22;3.63;;;1.90;;
17796;SDS011;55596;53.554;9.916;2023-04-29T14:21:49;3.72;;;2.00;;
17796;SDS011;55596;53.554;9.916;2023-04-29T14:24:17;4.40;;;2.00;;
17796;SDS011;55596;53.554;9.916;2023-04-29T14:26:44;6.20;;;2.20;;
17796;SDS011;55596;53.554;9.916;2023-04-29T14:29:11;3.70;;;1.83;;
17796;SDS011;55596;53.554;9.916;2023-04-29T14:31:38;5.13;;;1.80;;
17796;SDS011;55596;53.554;9.916;2023-04-29T14:34:07;3.60;;;1.95;;
17796;SDS011;55596;53.554;9.916;2023-04-29T14:36:34;4.40;;;1.92;;
17796;SDS011;55596;53.554;9.916;2023-04-29T14:39:02;3.03;;;1.63;;